CSN827 RPVP-WBSB
Flight info
| Callsign | CSN827 |
|---|---|
| Flight time | 1h 3m |
| Altitude | 32000 |
| Route | MIKEL1W MIKEL DCT IKONO DCT RUPUB DCT CF21 |
| Aircraft | A320/M-SDE3FGHIRWY/LB1 |
Departure
| Time | 2026-05-08 16:15 |
|---|---|
| Airport | Puerto Princesa International Airport / PAF Antonio Bautista Air Base (RPVP) |
Arrival
| Time | 2026-05-08 17:18 |
|---|---|
| Airport | Brunei International Airport (WBSB) |
| Time | Latitude | Longitude | Altitude | Speed | Heading |
|---|---|---|---|---|---|
| 2026-05-08 15:54 | 9.74509 | 118.75064 | 58 ft | 0 kts | 2° |
| 2026-05-08 16:04 | 9.74505 | 118.75064 | 58 ft | 2 kts | 2° |
| 2026-05-08 16:04 | 9.74490 | 118.75063 | 58 ft | 2 kts | 2° |
| 2026-05-08 16:04 | 9.74475 | 118.75063 | 58 ft | 2 kts | 2° |
| 2026-05-08 16:04 | 9.74460 | 118.75062 | 58 ft | 2 kts | 2° |
| 2026-05-08 16:05 | 9.74445 | 118.75061 | 58 ft | 2 kts | 2° |
| 2026-05-08 16:05 | 9.74430 | 118.75061 | 58 ft | 2 kts | 2° |
| 2026-05-08 16:05 | 9.74415 | 118.75057 | 58 ft | 2 kts | 36° |
| 2026-05-08 16:05 | 9.74405 | 118.75046 | 59 ft | 2 kts | 63° |
| 2026-05-08 16:06 | 9.74401 | 118.75032 | 59 ft | 1 kts | 88° |
| 2026-05-08 16:06 | 9.74401 | 118.75026 | 59 ft | 1 kts | 95° |
| 2026-05-08 16:06 | 9.74401 | 118.75024 | 59 ft | 0 kts | 93° |
| 2026-05-08 16:09 | 9.74402 | 118.75038 | 58 ft | 5 kts | 85° |
| 2026-05-08 16:09 | 9.74409 | 118.75098 | 57 ft | 12 kts | 86° |
| 2026-05-08 16:10 | 9.74407 | 118.75198 | 56 ft | 15 kts | 93° |
| 2026-05-08 16:10 | 9.74356 | 118.75260 | 54 ft | 14 kts | 183° |
| 2026-05-08 16:10 | 9.74257 | 118.75269 | 54 ft | 15 kts | 138° |
| 2026-05-08 16:10 | 9.74234 | 118.75377 | 52 ft | 17 kts | 94° |
| 2026-05-08 16:11 | 9.74227 | 118.75509 | 50 ft | 20 kts | 93° |
| 2026-05-08 16:11 | 9.74221 | 118.75656 | 47 ft | 22 kts | 92° |
| 2026-05-08 16:11 | 9.74217 | 118.75817 | 44 ft | 24 kts | 90° |
| 2026-05-08 16:11 | 9.74209 | 118.75992 | 41 ft | 26 kts | 93° |
| 2026-05-08 16:12 | 9.74201 | 118.76176 | 38 ft | 27 kts | 91° |
| 2026-05-08 16:12 | 9.74192 | 118.76372 | 34 ft | 28 kts | 93° |
| 2026-05-08 16:12 | 9.74183 | 118.76556 | 30 ft | 25 kts | 92° |
| 2026-05-08 16:12 | 9.74174 | 118.76737 | 25 ft | 26 kts | 92° |
| 2026-05-08 16:13 | 9.74191 | 118.76908 | 19 ft | 22 kts | 59° |
| 2026-05-08 16:13 | 9.74214 | 118.77023 | 14 ft | 15 kts | 108° |
| 2026-05-08 16:13 | 9.74158 | 118.77004 | 15 ft | 14 kts | 278° |
| 2026-05-08 16:13 | 9.74163 | 118.76951 | 17 ft | 0 kts | 270° |
| 2026-05-08 16:14 | 9.74163 | 118.76949 | 17 ft | 2 kts | 270° |
| 2026-05-08 16:14 | 9.74170 | 118.76788 | 23 ft | 56 kts | 271° |
| 2026-05-08 16:14 | 9.74196 | 118.76171 | 38 ft | 117 kts | 272° |
| 2026-05-08 16:14 | 9.74234 | 118.75171 | 57 ft | 166 kts | 271° |
| 2026-05-08 16:15 | 9.74192 | 118.73977 | 513 ft | 169 kts | 265° |
| 2026-05-08 16:15 | 9.74150 | 118.72809 | 1051 ft | 171 kts | 265° |
| 2026-05-08 16:15 | 9.74042 | 118.71571 | 1457 ft | 183 kts | 262° |
| 2026-05-08 16:15 | 9.73750 | 118.70298 | 1980 ft | 188 kts | 248° |
| 2026-05-08 16:16 | 9.73722 | 118.70216 | 2010 ft | 189 kts | 248° |
| 2026-05-08 16:16 | 9.73602 | 118.69867 | 2123 ft | 192 kts | 254° |
| 2026-05-08 16:16 | 9.73373 | 118.68509 | 2404 ft | 204 kts | 261° |
| 2026-05-08 16:16 | 9.72770 | 118.67190 | 2683 ft | 216 kts | 220° |
| 2026-05-08 16:17 | 9.71424 | 118.66602 | 3003 ft | 216 kts | 175° |
| 2026-05-08 16:17 | 9.70454 | 118.66817 | 3225 ft | 214 kts | 147° |
| 2026-05-08 16:17 | 9.69114 | 118.68288 | 3735 ft | 225 kts | 124° |
| 2026-05-08 16:17 | 9.68069 | 118.69476 | 4404 ft | 228 kts | 132° |
| 2026-05-08 16:18 | 9.66897 | 118.70544 | 5120 ft | 230 kts | 136° |
| 2026-05-08 16:18 | 9.65640 | 118.71547 | 5792 ft | 232 kts | 139° |
| 2026-05-08 16:18 | 9.64336 | 118.72509 | 6454 ft | 234 kts | 140° |
| 2026-05-08 16:18 | 9.63000 | 118.73454 | 7069 ft | 237 kts | 141° |
| 2026-05-08 16:19 | 9.61632 | 118.74401 | 7661 ft | 241 kts | 141° |
| 2026-05-08 16:19 | 9.60229 | 118.75365 | 8242 ft | 245 kts | 141° |
| 2026-05-08 16:19 | 9.58813 | 118.76333 | 8811 ft | 248 kts | 142° |
| 2026-05-08 16:19 | 9.57324 | 118.77232 | 9356 ft | 255 kts | 155° |
| 2026-05-08 16:20 | 9.55556 | 118.77552 | 9869 ft | 267 kts | 178° |
| 2026-05-08 16:20 | 9.53651 | 118.77354 | 10175 ft | 283 kts | 184° |
| 2026-05-08 16:20 | 9.51644 | 118.77062 | 10451 ft | 299 kts | 185° |
| 2026-05-08 16:20 | 9.49523 | 118.76749 | 10723 ft | 314 kts | 185° |
| 2026-05-08 16:21 | 9.47283 | 118.76432 | 11002 ft | 329 kts | 184° |
| 2026-05-08 16:21 | 9.44988 | 118.76117 | 11462 ft | 336 kts | 185° |
| 2026-05-08 16:21 | 9.42658 | 118.75801 | 12045 ft | 338 kts | 184° |
| 2026-05-08 16:21 | 9.40321 | 118.75486 | 12624 ft | 341 kts | 184° |
| 2026-05-08 16:22 | 9.37991 | 118.74973 | 13136 ft | 349 kts | 201° |
| 2026-05-08 16:22 | 9.35989 | 118.73579 | 13678 ft | 356 kts | 226° |
| 2026-05-08 16:22 | 9.34551 | 118.71542 | 14254 ft | 358 kts | 237° |
| 2026-05-08 16:22 | 9.33223 | 118.69374 | 14710 ft | 364 kts | 237° |
| 2026-05-08 16:23 | 9.31886 | 118.67190 | 15175 ft | 368 kts | 237° |
| 2026-05-08 16:23 | 9.30523 | 118.64990 | 15678 ft | 371 kts | 237° |
| 2026-05-08 16:23 | 9.29144 | 118.62786 | 16159 ft | 374 kts | 237° |
| 2026-05-08 16:23 | 9.27747 | 118.60567 | 16635 ft | 376 kts | 236° |
| 2026-05-08 16:24 | 9.26337 | 118.58334 | 17100 ft | 379 kts | 236° |
| 2026-05-08 16:24 | 9.24914 | 118.56086 | 17550 ft | 382 kts | 236° |
| 2026-05-08 16:24 | 9.23470 | 118.53807 | 18007 ft | 384 kts | 236° |
| 2026-05-08 16:24 | 9.22027 | 118.51530 | 18447 ft | 387 kts | 236° |
| 2026-05-08 16:25 | 9.20574 | 118.49239 | 18876 ft | 389 kts | 236° |
| 2026-05-08 16:25 | 9.19111 | 118.46933 | 19305 ft | 392 kts | 237° |
| 2026-05-08 16:25 | 9.17642 | 118.44616 | 19745 ft | 393 kts | 236° |
| 2026-05-08 16:25 | 9.16163 | 118.42285 | 20167 ft | 396 kts | 237° |
| 2026-05-08 16:26 | 9.14679 | 118.39944 | 20576 ft | 398 kts | 237° |
| 2026-05-08 16:26 | 9.13170 | 118.37567 | 20992 ft | 400 kts | 237° |
| 2026-05-08 16:26 | 9.11669 | 118.35202 | 21406 ft | 402 kts | 237° |
| 2026-05-08 16:26 | 9.10160 | 118.32823 | 21792 ft | 404 kts | 236° |
| 2026-05-08 16:27 | 9.08588 | 118.30465 | 22165 ft | 406 kts | 231° |
| 2026-05-08 16:27 | 9.06767 | 118.28292 | 22568 ft | 406 kts | 224° |
| 2026-05-08 16:27 | 9.04701 | 118.26353 | 22985 ft | 406 kts | 219° |
| 2026-05-08 16:27 | 9.02522 | 118.24536 | 23378 ft | 408 kts | 218° |
| 2026-05-08 16:28 | 9.00299 | 118.22718 | 23768 ft | 409 kts | 218° |
| 2026-05-08 16:28 | 8.98081 | 118.20905 | 24143 ft | 411 kts | 218° |
| 2026-05-08 16:28 | 8.95852 | 118.19077 | 24494 ft | 414 kts | 218° |
| 2026-05-08 16:28 | 8.93618 | 118.17241 | 24840 ft | 416 kts | 218° |
| 2026-05-08 16:29 | 8.91372 | 118.15391 | 25194 ft | 418 kts | 218° |
| 2026-05-08 16:29 | 8.89122 | 118.13536 | 25556 ft | 419 kts | 218° |
| 2026-05-08 16:29 | 8.86863 | 118.11672 | 25890 ft | 421 kts | 219° |
| 2026-05-08 16:29 | 8.84573 | 118.09782 | 26228 ft | 423 kts | 219° |
| 2026-05-08 16:30 | 8.82297 | 118.07904 | 26598 ft | 423 kts | 219° |
| 2026-05-08 16:30 | 8.80023 | 118.06029 | 27032 ft | 422 kts | 219° |
| 2026-05-08 16:30 | 8.77756 | 118.04158 | 27413 ft | 422 kts | 219° |
| 2026-05-08 16:30 | 8.75490 | 118.02288 | 27785 ft | 421 kts | 219° |
| 2026-05-08 16:31 | 8.73225 | 118.00419 | 28153 ft | 420 kts | 219° |
| 2026-05-08 16:31 | 8.70965 | 117.98555 | 28534 ft | 419 kts | 220° |
| 2026-05-08 16:31 | 8.68694 | 117.96679 | 28903 ft | 418 kts | 219° |
| 2026-05-08 16:31 | 8.66450 | 117.94826 | 29265 ft | 418 kts | 219° |
| 2026-05-08 16:32 | 8.64204 | 117.92972 | 29621 ft | 417 kts | 219° |
| 2026-05-08 16:32 | 8.61967 | 117.91126 | 29977 ft | 415 kts | 219° |
| 2026-05-08 16:32 | 8.59732 | 117.89283 | 30302 ft | 415 kts | 219° |
| 2026-05-08 16:32 | 8.57493 | 117.87438 | 30544 ft | 417 kts | 219° |
| 2026-05-08 16:33 | 8.55248 | 117.85589 | 30793 ft | 418 kts | 219° |
| 2026-05-08 16:33 | 8.52983 | 117.83723 | 31022 ft | 419 kts | 219° |
| 2026-05-08 16:33 | 8.50724 | 117.81863 | 31256 ft | 420 kts | 219° |
| 2026-05-08 16:33 | 8.48462 | 117.80000 | 31491 ft | 421 kts | 218° |
| 2026-05-08 16:34 | 8.46195 | 117.78132 | 31727 ft | 422 kts | 218° |
| 2026-05-08 16:34 | 8.43917 | 117.76258 | 31801 ft | 424 kts | 218° |
| 2026-05-08 16:34 | 8.39355 | 117.72505 | 31811 ft | 423 kts | 219° |
| 2026-05-08 16:35 | 8.34776 | 117.68736 | 31809 ft | 423 kts | 219° |
| 2026-05-08 16:35 | 8.30213 | 117.64983 | 31805 ft | 423 kts | 218° |
| 2026-05-08 16:36 | 8.25654 | 117.61234 | 31805 ft | 423 kts | 219° |
| 2026-05-08 16:36 | 8.21076 | 117.57469 | 31805 ft | 423 kts | 218° |
| 2026-05-08 16:37 | 8.16505 | 117.53713 | 31806 ft | 424 kts | 218° |
| 2026-05-08 16:37 | 8.11939 | 117.49962 | 31809 ft | 424 kts | 218° |
| 2026-05-08 16:38 | 8.07369 | 117.46208 | 31811 ft | 423 kts | 219° |
| 2026-05-08 16:38 | 8.02784 | 117.42459 | 31810 ft | 423 kts | 218° |
| 2026-05-08 16:39 | 7.98219 | 117.38721 | 31814 ft | 423 kts | 218° |
| 2026-05-08 16:39 | 7.93651 | 117.34972 | 31818 ft | 424 kts | 218° |
| 2026-05-08 16:40 | 7.89069 | 117.31212 | 31819 ft | 424 kts | 218° |
| 2026-05-08 16:40 | 7.84499 | 117.27461 | 31820 ft | 424 kts | 218° |
| 2026-05-08 16:41 | 7.79940 | 117.23722 | 31820 ft | 423 kts | 218° |
| 2026-05-08 16:42 | 7.73102 | 117.18116 | 31818 ft | 421 kts | 218° |
| 2026-05-08 16:42 | 7.68561 | 117.14392 | 31819 ft | 421 kts | 218° |
| 2026-05-08 16:43 | 7.64019 | 117.10670 | 31819 ft | 421 kts | 218° |
| 2026-05-08 16:43 | 7.59468 | 117.06944 | 31818 ft | 422 kts | 218° |
| 2026-05-08 16:44 | 7.54908 | 117.03194 | 31813 ft | 422 kts | 219° |
| 2026-05-08 16:44 | 7.50364 | 116.99457 | 31804 ft | 421 kts | 219° |
| 2026-05-08 16:45 | 7.45829 | 116.95738 | 31798 ft | 421 kts | 219° |
| 2026-05-08 16:45 | 7.41276 | 116.92014 | 31797 ft | 420 kts | 219° |
| 2026-05-08 16:46 | 7.36739 | 116.88304 | 31796 ft | 420 kts | 219° |
| 2026-05-08 16:46 | 7.32207 | 116.84599 | 31797 ft | 420 kts | 219° |
| 2026-05-08 16:47 | 7.27668 | 116.80889 | 31796 ft | 420 kts | 219° |
| 2026-05-08 16:47 | 7.23116 | 116.77169 | 31797 ft | 420 kts | 219° |
| 2026-05-08 16:48 | 7.18559 | 116.73447 | 31797 ft | 422 kts | 219° |
| 2026-05-08 16:48 | 7.14003 | 116.69727 | 31797 ft | 421 kts | 219° |
| 2026-05-08 16:49 | 7.09438 | 116.66000 | 31797 ft | 421 kts | 219° |
| 2026-05-08 16:49 | 7.04843 | 116.62249 | 31801 ft | 430 kts | 219° |
| 2026-05-08 16:50 | 7.00187 | 116.58450 | 31801 ft | 432 kts | 219° |
| 2026-05-08 16:50 | 6.95522 | 116.54643 | 31800 ft | 432 kts | 219° |
| 2026-05-08 16:51 | 6.90834 | 116.50821 | 31801 ft | 432 kts | 219° |
| 2026-05-08 16:51 | 6.86168 | 116.47016 | 31800 ft | 432 kts | 219° |
| 2026-05-08 16:52 | 6.81500 | 116.43210 | 31800 ft | 432 kts | 219° |
| 2026-05-08 16:52 | 6.76847 | 116.39419 | 31793 ft | 422 kts | 219° |
| 2026-05-08 16:53 | 6.69992 | 116.33834 | 31804 ft | 429 kts | 219° |
| 2026-05-08 16:53 | 6.65360 | 116.30062 | 31800 ft | 429 kts | 219° |
| 2026-05-08 16:54 | 6.60697 | 116.26266 | 31797 ft | 430 kts | 219° |
| 2026-05-08 16:54 | 6.56052 | 116.22485 | 31803 ft | 430 kts | 219° |
| 2026-05-08 16:55 | 6.51401 | 116.18699 | 31806 ft | 428 kts | 219° |
| 2026-05-08 16:55 | 6.49105 | 116.16831 | 31600 ft | 423 kts | 219° |
| 2026-05-08 16:55 | 6.46816 | 116.14966 | 30728 ft | 431 kts | 219° |
| 2026-05-08 16:56 | 6.44443 | 116.13036 | 29545 ft | 444 kts | 219° |
| 2026-05-08 16:56 | 6.42026 | 116.11075 | 28591 ft | 450 kts | 220° |
| 2026-05-08 16:56 | 6.39607 | 116.09110 | 28030 ft | 447 kts | 220° |
| 2026-05-08 16:56 | 6.37198 | 116.07149 | 27453 ft | 445 kts | 220° |
| 2026-05-08 16:57 | 6.34802 | 116.05199 | 26912 ft | 443 kts | 220° |
| 2026-05-08 16:57 | 6.32417 | 116.03258 | 26355 ft | 441 kts | 220° |
| 2026-05-08 16:57 | 6.30045 | 116.01329 | 25815 ft | 438 kts | 219° |
| 2026-05-08 16:57 | 6.27666 | 115.99396 | 25281 ft | 436 kts | 219° |
| 2026-05-08 16:58 | 6.25325 | 115.97493 | 24745 ft | 433 kts | 219° |
| 2026-05-08 16:58 | 6.22991 | 115.95597 | 24233 ft | 431 kts | 219° |
| 2026-05-08 16:58 | 6.20670 | 115.93711 | 23705 ft | 429 kts | 219° |
| 2026-05-08 16:58 | 6.18361 | 115.91835 | 23180 ft | 427 kts | 219° |
| 2026-05-08 16:59 | 6.16061 | 115.89967 | 22652 ft | 425 kts | 219° |
| 2026-05-08 16:59 | 6.13765 | 115.88103 | 22124 ft | 424 kts | 219° |
| 2026-05-08 16:59 | 6.11461 | 115.86231 | 21591 ft | 423 kts | 219° |
| 2026-05-08 16:59 | 6.09183 | 115.84381 | 21081 ft | 422 kts | 219° |
| 2026-05-08 17:00 | 6.06908 | 115.82533 | 20567 ft | 420 kts | 219° |
| 2026-05-08 17:00 | 6.04643 | 115.80694 | 20053 ft | 419 kts | 218° |
| 2026-05-08 17:00 | 6.02385 | 115.78860 | 19547 ft | 417 kts | 218° |
| 2026-05-08 17:00 | 6.00141 | 115.77039 | 19057 ft | 415 kts | 218° |
| 2026-05-08 17:01 | 5.97904 | 115.75224 | 18562 ft | 413 kts | 218° |
| 2026-05-08 17:01 | 5.95664 | 115.73409 | 18085 ft | 410 kts | 218° |
| 2026-05-08 17:01 | 5.93459 | 115.71623 | 17620 ft | 407 kts | 217° |
| 2026-05-08 17:01 | 5.91270 | 115.69850 | 17158 ft | 404 kts | 217° |
| 2026-05-08 17:02 | 5.89088 | 115.68085 | 16704 ft | 401 kts | 217° |
| 2026-05-08 17:02 | 5.86927 | 115.66337 | 16271 ft | 397 kts | 217° |
| 2026-05-08 17:02 | 5.84792 | 115.64612 | 15849 ft | 393 kts | 217° |
| 2026-05-08 17:02 | 5.82677 | 115.62901 | 15429 ft | 389 kts | 217° |
| 2026-05-08 17:03 | 5.80564 | 115.61192 | 15016 ft | 386 kts | 217° |
| 2026-05-08 17:03 | 5.78487 | 115.59512 | 14598 ft | 382 kts | 217° |
| 2026-05-08 17:03 | 5.76428 | 115.57847 | 14176 ft | 379 kts | 217° |
| 2026-05-08 17:03 | 5.74386 | 115.56196 | 13795 ft | 375 kts | 217° |
| 2026-05-08 17:04 | 5.72365 | 115.54561 | 13405 ft | 372 kts | 217° |
| 2026-05-08 17:04 | 5.70364 | 115.52942 | 13004 ft | 369 kts | 217° |
| 2026-05-08 17:04 | 5.68372 | 115.51333 | 12603 ft | 366 kts | 217° |
| 2026-05-08 17:04 | 5.66383 | 115.49726 | 12212 ft | 363 kts | 218° |
| 2026-05-08 17:05 | 5.64424 | 115.48144 | 11811 ft | 360 kts | 218° |
| 2026-05-08 17:05 | 5.62480 | 115.46574 | 11418 ft | 357 kts | 218° |
| 2026-05-08 17:05 | 5.60553 | 115.45017 | 11028 ft | 355 kts | 218° |
| 2026-05-08 17:05 | 5.58643 | 115.43473 | 10645 ft | 352 kts | 218° |
| 2026-05-08 17:06 | 5.56741 | 115.41936 | 10265 ft | 349 kts | 218° |
| 2026-05-08 17:06 | 5.54870 | 115.40424 | 10028 ft | 340 kts | 218° |
| 2026-05-08 17:06 | 5.53054 | 115.38955 | 9964 ft | 326 kts | 218° |
| 2026-05-08 17:06 | 5.51316 | 115.37550 | 9775 ft | 317 kts | 218° |
| 2026-05-08 17:07 | 5.49616 | 115.36177 | 9525 ft | 311 kts | 218° |
| 2026-05-08 17:07 | 5.47937 | 115.34822 | 9164 ft | 309 kts | 218° |
| 2026-05-08 17:07 | 5.46266 | 115.33473 | 8778 ft | 308 kts | 218° |
| 2026-05-08 17:07 | 5.44602 | 115.32129 | 8421 ft | 306 kts | 218° |
| 2026-05-08 17:08 | 5.42951 | 115.30796 | 8079 ft | 304 kts | 218° |
| 2026-05-08 17:08 | 5.41302 | 115.29465 | 7745 ft | 301 kts | 218° |
| 2026-05-08 17:08 | 5.39680 | 115.28155 | 7425 ft | 298 kts | 218° |
| 2026-05-08 17:08 | 5.38073 | 115.26857 | 7104 ft | 295 kts | 218° |
| 2026-05-08 17:09 | 5.36483 | 115.25573 | 6786 ft | 292 kts | 218° |
| 2026-05-08 17:09 | 5.34909 | 115.24302 | 6465 ft | 290 kts | 218° |
| 2026-05-08 17:09 | 5.33345 | 115.23039 | 6151 ft | 288 kts | 218° |
| 2026-05-08 17:09 | 5.31793 | 115.21787 | 5843 ft | 285 kts | 218° |
| 2026-05-08 17:10 | 5.30246 | 115.20539 | 5532 ft | 283 kts | 218° |
| 2026-05-08 17:10 | 5.28721 | 115.19308 | 5228 ft | 281 kts | 218° |
| 2026-05-08 17:10 | 5.27205 | 115.18085 | 4919 ft | 279 kts | 218° |
| 2026-05-08 17:10 | 5.25699 | 115.16871 | 4617 ft | 277 kts | 219° |
| 2026-05-08 17:11 | 5.24203 | 115.15664 | 4319 ft | 275 kts | 219° |
| 2026-05-08 17:11 | 5.22715 | 115.14464 | 4021 ft | 274 kts | 219° |
| 2026-05-08 17:11 | 5.21238 | 115.13273 | 3724 ft | 272 kts | 219° |
| 2026-05-08 17:11 | 5.19757 | 115.12077 | 3425 ft | 271 kts | 219° |
| 2026-05-08 17:12 | 5.18303 | 115.10904 | 3258 ft | 263 kts | 219° |
| 2026-05-08 17:12 | 5.16918 | 115.09775 | 3223 ft | 249 kts | 221° |
| 2026-05-08 17:12 | 5.15673 | 115.08637 | 3184 ft | 236 kts | 223° |
| 2026-05-08 17:12 | 5.14511 | 115.07540 | 3140 ft | 223 kts | 224° |
| 2026-05-08 17:13 | 5.13400 | 115.06487 | 3073 ft | 219 kts | 224° |
| 2026-05-08 17:13 | 5.12305 | 115.05450 | 3017 ft | 211 kts | 224° |
| 2026-05-08 17:13 | 5.11262 | 115.04464 | 2896 ft | 199 kts | 224° |
| 2026-05-08 17:13 | 5.10289 | 115.03545 | 2746 ft | 187 kts | 224° |
| 2026-05-08 17:14 | 5.09356 | 115.02663 | 2464 ft | 184 kts | 224° |
| 2026-05-08 17:14 | 5.08441 | 115.01798 | 2211 ft | 178 kts | 223° |
| 2026-05-08 17:14 | 5.07560 | 115.00979 | 1983 ft | 168 kts | 219° |
| 2026-05-08 17:14 | 5.06685 | 115.00305 | 1907 ft | 151 kts | 216° |
| 2026-05-08 17:15 | 5.05834 | 114.99702 | 1914 ft | 149 kts | 214° |
| 2026-05-08 17:15 | 5.04956 | 114.99124 | 1919 ft | 150 kts | 212° |
| 2026-05-08 17:15 | 5.04066 | 114.98571 | 1834 ft | 150 kts | 211° |
| 2026-05-08 17:15 | 5.03175 | 114.98033 | 1644 ft | 149 kts | 211° |
| 2026-05-08 17:16 | 5.02285 | 114.97501 | 1464 ft | 148 kts | 210° |
| 2026-05-08 17:16 | 5.01404 | 114.96974 | 1278 ft | 147 kts | 210° |
| 2026-05-08 17:16 | 5.00531 | 114.96451 | 1092 ft | 145 kts | 211° |
| 2026-05-08 17:16 | 4.99667 | 114.95933 | 906 ft | 143 kts | 211° |
| 2026-05-08 17:17 | 4.98806 | 114.95428 | 718 ft | 142 kts | 204° |
| 2026-05-08 17:17 | 4.97943 | 114.94946 | 564 ft | 141 kts | 207° |
| 2026-05-08 17:17 | 4.97101 | 114.94448 | 337 ft | 139 kts | 209° |
| 2026-05-08 17:17 | 4.96284 | 114.93942 | 188 ft | 138 kts | 205° |
| 2026-05-08 17:18 | 4.95454 | 114.93462 | 65 ft | 133 kts | 209° |
| 2026-05-08 17:18 | 4.94779 | 114.93062 | 49 ft | 88 kts | 213° |
| 2026-05-08 17:18 | 4.94342 | 114.92792 | 29 ft | 69 kts | 211° |
| 2026-05-08 17:18 | 4.94082 | 114.92635 | 20 ft | 18 kts | 212° |
| 2026-05-08 17:19 | 4.94059 | 114.92621 | 20 ft | 2 kts | 212° |
| 2026-05-08 17:19 | 4.94017 | 114.92596 | 19 ft | 12 kts | 211° |
| 2026-05-08 17:19 | 4.93914 | 114.92540 | 17 ft | 21 kts | 189° |
| 2026-05-08 17:19 | 4.93822 | 114.92628 | 17 ft | 20 kts | 90° |
| 2026-05-08 17:20 | 4.93910 | 114.92727 | 19 ft | 20 kts | 30° |
| 2026-05-08 17:20 | 4.94023 | 114.92796 | 20 ft | 19 kts | 31° |
| 2026-05-08 17:20 | 4.94134 | 114.92862 | 23 ft | 18 kts | 29° |
| 2026-05-08 17:20 | 4.94235 | 114.92920 | 27 ft | 16 kts | 33° |
| 2026-05-08 17:21 | 4.94320 | 114.92974 | 32 ft | 13 kts | 29° |
| 2026-05-08 17:21 | 4.94403 | 114.93021 | 35 ft | 14 kts | 31° |
| 2026-05-08 17:21 | 4.94490 | 114.93075 | 38 ft | 15 kts | 32° |
| 2026-05-08 17:21 | 4.94579 | 114.93129 | 44 ft | 15 kts | 29° |
| 2026-05-08 17:22 | 4.94634 | 114.93156 | 47 ft | 5 kts | 28° |
| 2026-05-08 17:22 | 4.94660 | 114.93176 | 49 ft | 4 kts | 60° |
| 2026-05-08 17:22 | 4.94658 | 114.93210 | 50 ft | 6 kts | 116° |
| 2026-05-08 17:22 | 4.94625 | 114.93243 | 51 ft | 8 kts | 141° |
| 2026-05-08 17:23 | 4.94616 | 114.93250 | 51 ft | 0 kts | 141° |